createdAt,value
2022-12-27T17:41:10.332Z,32.85
2022-12-27T17:44:31.458Z,31.73
2022-12-27T17:47:20.495Z,39.58
2022-12-27T17:49:47.741Z,29.10
2022-12-27T17:52:39.870Z,30.58
2022-12-27T17:55:37.631Z,26.85
2022-12-27T17:58:09.775Z,23.77
2022-12-27T18:00:59.321Z,26.25
2022-12-27T18:03:36.020Z,21.27
2022-12-27T18:06:03.849Z,21.08
2022-12-27T18:08:34.029Z,20.63
2022-12-27T18:11:03.523Z,26.20
2022-12-27T18:13:39.027Z,17.98
2022-12-27T18:16:22.819Z,19.58
2022-12-27T18:18:53.780Z,15.18
2022-12-27T18:21:27.718Z,13.35
2022-12-27T18:23:55.518Z,24.35
2022-12-27T18:26:35.487Z,12.23
2022-12-27T18:29:02.336Z,9.88
2022-12-27T18:31:36.706Z,12.88
2022-12-27T18:34:29.138Z,11.05
2022-12-27T18:37:09.965Z,10.20
2022-12-27T18:39:39.208Z,8.35
2022-12-27T18:42:35.395Z,10.70
2022-12-27T18:45:27.473Z,9.93
2022-12-27T18:48:00.130Z,10.25
2022-12-27T18:50:30.227Z,12.95
2022-12-27T18:53:22.611Z,9.05
2022-12-27T18:56:02.282Z,16.35
2022-12-27T18:58:29.091Z,14.32
2022-12-27T19:01:19.264Z,13.43
2022-12-27T19:04:14.190Z,11.10
2022-12-27T19:09:43.221Z,6.78
2022-12-27T19:12:34.160Z,17.10
2022-12-27T19:15:02.211Z,11.30
2022-12-27T19:17:31.220Z,10.75
2022-12-27T19:20:05.692Z,9.55
2022-12-27T19:22:53.100Z,11.38
2022-12-27T19:25:35.960Z,9.80
2022-12-27T19:28:30.506Z,9.43
2022-12-27T19:31:16.234Z,10.27
2022-12-27T19:33:48.164Z,10.60
2022-12-27T19:36:15.155Z,12.65
2022-12-27T19:38:47.577Z,10.27
2022-12-27T19:41:16.158Z,8.23
2022-12-27T19:43:46.147Z,9.85
2022-12-27T19:46:14.798Z,8.85
2022-12-27T19:48:41.831Z,7.10
2022-12-27T19:51:16.357Z,12.88
2022-12-27T19:53:52.309Z,7.40
2022-12-27T19:56:22.437Z,6.57
2022-12-27T19:58:49.851Z,6.60
2022-12-27T20:01:16.737Z,7.13
2022-12-27T20:03:43.617Z,8.32
2022-12-27T20:06:14.985Z,6.18
2022-12-27T20:08:50.451Z,7.53
2022-12-27T20:11:21.426Z,6.25
2022-12-27T20:13:49.409Z,9.07
2022-12-27T20:16:18.666Z,8.93
2022-12-27T20:18:46.565Z,9.93
2022-12-27T20:21:19.030Z,4.90
2022-12-27T20:23:46.714Z,7.18
2022-12-27T20:26:18.206Z,10.68
2022-12-27T20:28:45.170Z,7.90
2022-12-27T20:31:16.050Z,5.88
2022-12-27T20:33:43.140Z,2.28
2022-12-27T20:36:11.187Z,3.47
2022-12-27T20:38:39.226Z,3.88
2022-12-27T20:41:12.821Z,5.90
2022-12-27T20:43:40.189Z,4.40
2022-12-27T20:46:27.056Z,5.75
2022-12-27T20:48:55.606Z,6.30
2022-12-27T20:51:28.067Z,5.18
2022-12-27T20:53:58.362Z,9.50
2022-12-27T20:56:25.723Z,4.07
2022-12-27T20:58:52.815Z,3.65
2022-12-27T21:01:25.933Z,3.80
2022-12-27T21:03:55.892Z,3.90
2022-12-27T21:06:26.781Z,3.40
2022-12-27T21:08:57.172Z,8.63
2022-12-27T21:11:33.841Z,6.90
2022-12-27T21:14:03.365Z,5.88
2022-12-27T21:16:33.562Z,7.60
2022-12-27T21:19:04.661Z,2.92
2022-12-27T21:21:34.207Z,6.72
2022-12-27T21:24:01.144Z,7.70
2022-12-27T21:26:35.352Z,4.53
2022-12-27T21:31:31.941Z,7.53
2022-12-27T21:33:59.743Z,3.95
2022-12-27T21:36:30.352Z,5.22
2022-12-27T21:38:57.475Z,4.93
2022-12-27T21:41:31.042Z,4.57
2022-12-27T21:43:57.914Z,6.15
2022-12-27T21:46:32.000Z,8.25
2022-12-27T21:49:05.914Z,3.88
2022-12-27T21:51:34.387Z,5.47
2022-12-27T21:54:02.062Z,4.50
2022-12-27T21:56:30.136Z,7.35
2022-12-27T21:58:58.390Z,4.82
2022-12-27T22:01:51.572Z,7.53
2022-12-27T22:04:18.327Z,5.65
2022-12-27T22:06:47.391Z,7.60
2022-12-27T22:09:15.067Z,7.88
2022-12-27T22:11:42.129Z,5.03
2022-12-27T22:14:08.953Z,4.20
2022-12-27T22:16:38.488Z,7.88
2022-12-27T22:19:08.308Z,7.65
2022-12-27T22:21:37.053Z,7.25
2022-12-27T22:24:04.701Z,4.38
2022-12-27T22:26:37.184Z,7.03
2022-12-27T22:29:05.317Z,7.72
2022-12-27T22:31:37.806Z,10.35
2022-12-27T22:34:06.166Z,4.65
2022-12-27T22:36:33.568Z,3.67
2022-12-27T22:39:00.584Z,4.22
2022-12-27T22:41:33.968Z,4.93
2022-12-27T22:44:07.437Z,5.93
2022-12-27T22:49:21.813Z,4.05
2022-12-27T22:51:48.599Z,3.72
2022-12-27T22:54:15.398Z,5.50
2022-12-27T22:56:43.632Z,6.25
2022-12-27T22:59:16.345Z,8.27
2022-12-27T23:01:44.850Z,4.72
2022-12-27T23:04:13.564Z,6.13
2022-12-27T23:06:41.027Z,5.63
2022-12-27T23:09:08.778Z,7.05
2022-12-27T23:11:38.565Z,8.30
2022-12-27T23:14:16.343Z,5.70
2022-12-27T23:16:47.259Z,6.47
2022-12-27T23:19:16.872Z,3.88
2022-12-27T23:21:44.009Z,6.68
2022-12-27T23:24:11.456Z,7.32
2022-12-27T23:26:38.942Z,5.55
2022-12-27T23:29:06.845Z,3.75
2022-12-27T23:31:34.339Z,5.30
2022-12-27T23:34:01.194Z,3.58
2022-12-27T23:36:28.045Z,10.57
2022-12-27T23:38:55.482Z,7.60
2022-12-27T23:41:24.796Z,7.90
2022-12-27T23:43:54.874Z,5.38
2022-12-27T23:46:32.446Z,6.95
2022-12-27T23:49:02.839Z,4.85
2022-12-27T23:51:31.117Z,5.20
2022-12-27T23:53:58.329Z,7.88
2022-12-27T23:56:27.669Z,3.40
2022-12-27T23:58:57.012Z,4.40
